Afton, California
Current Conditions -  °F | °C
As of 12:53 AM on Friday 31 Oct 2014 (Local Time) from KOVE Reporting Station
Clear Clear  
Wind Chill: 65°   Ceiling: Unl
Heat Index: 65°   Visibility: 10mi
Dew Point: 47°   Wind: 12mph
Humidity: 52%   Direction: 140°SE
Pressure: 29.87"   Gusts: NA
Location:  39.4608°N, 121.937°W
Report Text: KOVE 310753Z AUTO 14010KT 10SM CLR 18/08 A2987 RMK AO2 SLP114 T01830083 402500117
Loading
Personal Weather Stations






























Interactive Weather Map
Tropical Storm Tracking
New forecast layout! Learn more

10-Day Weather Forecast

Advertisements
Track Severe Weather on mobile